TWB144 RJAA-RKSI
Flight info
| Callsign | TWB144 |
|---|---|
| Flight time | 1h 59m |
| Altitude | 34000 |
| Route | ENPAR Y16 SAPRA Y685 GUKDO GUKDO2C |
| Aircraft | B77W/H-SDE1E2E3FGHIJ2J3J4J5M1RWXY/LB1D1 |
Departure
| Time | 2026-05-06 03:46 |
|---|---|
| Airport | Narita International Airport (RJAA) |
Arrival
| Time | 2026-05-06 05:45 |
|---|---|
| Airport | Incheon International Airport (RKSI) |
| Time | Latitude | Longitude | Altitude | Speed | Heading |
|---|---|---|---|---|---|
| 2026-05-06 02:47 | 35.75877 | 140.38591 | 149 ft | 0 kts | 59° |
| 2026-05-06 02:51 | 35.75876 | 140.38591 | 149 ft | 0 kts | 59° |
| 2026-05-06 03:33 | 35.75876 | 140.38590 | 176 ft | 1 kts | 59° |
| 2026-05-06 03:33 | 35.75863 | 140.38566 | 149 ft | 4 kts | 49° |
| 2026-05-06 03:33 | 35.75844 | 140.38544 | 149 ft | 4 kts | 31° |
| 2026-05-06 03:34 | 35.75822 | 140.38531 | 149 ft | 4 kts | 11° |
| 2026-05-06 03:34 | 35.75796 | 140.38529 | 149 ft | 4 kts | 351° |
| 2026-05-06 03:34 | 35.75771 | 140.38537 | 149 ft | 4 kts | 337° |
| 2026-05-06 03:34 | 35.75747 | 140.38551 | 149 ft | 4 kts | 329° |
| 2026-05-06 03:35 | 35.75726 | 140.38566 | 149 ft | 1 kts | 329° |
| 2026-05-06 03:35 | 35.75725 | 140.38567 | 149 ft | 0 kts | 329° |
| 2026-05-06 03:39 | 35.75732 | 140.38562 | 149 ft | 4 kts | 329° |
| 2026-05-06 03:39 | 35.75763 | 140.38508 | 149 ft | 10 kts | 276° |
| 2026-05-06 03:39 | 35.75748 | 140.38456 | 149 ft | 10 kts | 240° |
| 2026-05-06 03:40 | 35.75713 | 140.38381 | 149 ft | 10 kts | 240° |
| 2026-05-06 03:40 | 35.75766 | 140.38295 | 149 ft | 12 kts | 329° |
| 2026-05-06 03:40 | 35.75816 | 140.38259 | 149 ft | 13 kts | 329° |
| 2026-05-06 03:40 | 35.75900 | 140.38198 | 149 ft | 15 kts | 329° |
| 2026-05-06 03:41 | 35.75996 | 140.38129 | 149 ft | 17 kts | 329° |
| 2026-05-06 03:41 | 35.76102 | 140.38052 | 149 ft | 19 kts | 329° |
| 2026-05-06 03:41 | 35.76219 | 140.37968 | 148 ft | 20 kts | 329° |
| 2026-05-06 03:41 | 35.76345 | 140.37877 | 148 ft | 22 kts | 329° |
| 2026-05-06 03:42 | 35.76476 | 140.37781 | 148 ft | 22 kts | 329° |
| 2026-05-06 03:42 | 35.76607 | 140.37687 | 148 ft | 22 kts | 329° |
| 2026-05-06 03:42 | 35.76735 | 140.37594 | 148 ft | 22 kts | 329° |
| 2026-05-06 03:42 | 35.76867 | 140.37499 | 148 ft | 22 kts | 330° |
| 2026-05-06 03:43 | 35.76999 | 140.37404 | 148 ft | 22 kts | 330° |
| 2026-05-06 03:43 | 35.77132 | 140.37310 | 148 ft | 22 kts | 330° |
| 2026-05-06 03:43 | 35.77264 | 140.37216 | 148 ft | 22 kts | 330° |
| 2026-05-06 03:43 | 35.77395 | 140.37118 | 148 ft | 22 kts | 329° |
| 2026-05-06 03:44 | 35.77480 | 140.37055 | 148 ft | 12 kts | 318° |
| 2026-05-06 03:44 | 35.77482 | 140.36957 | 148 ft | 12 kts | 249° |
| 2026-05-06 03:44 | 35.77442 | 140.36875 | 148 ft | 8 kts | 237° |
| 2026-05-06 03:44 | 35.77396 | 140.36862 | 148 ft | 8 kts | 153° |
| 2026-05-06 03:45 | 35.77387 | 140.36869 | 148 ft | 1 kts | 150° |
| 2026-05-06 03:45 | 35.77346 | 140.36898 | 147 ft | 21 kts | 150° |
| 2026-05-06 03:45 | 35.77002 | 140.37146 | 147 ft | 94 kts | 149° |
| 2026-05-06 03:45 | 35.76255 | 140.37685 | 148 ft | 155 kts | 150° |
| 2026-05-06 03:46 | 35.75237 | 140.38420 | 511 ft | 172 kts | 150° |
| 2026-05-06 03:46 | 35.74188 | 140.39171 | 1247 ft | 173 kts | 153° |
| 2026-05-06 03:46 | 35.73145 | 140.39912 | 1979 ft | 177 kts | 153° |
| 2026-05-06 03:46 | 35.72011 | 140.40719 | 2248 ft | 201 kts | 152° |
| 2026-05-06 03:47 | 35.70706 | 140.41650 | 2459 ft | 232 kts | 152° |
| 2026-05-06 03:47 | 35.69252 | 140.42693 | 2979 ft | 247 kts | 152° |
| 2026-05-06 03:47 | 35.67759 | 140.43769 | 3785 ft | 255 kts | 152° |
| 2026-05-06 03:47 | 35.66216 | 140.44889 | 4685 ft | 259 kts | 152° |
| 2026-05-06 03:48 | 35.64647 | 140.46028 | 5398 ft | 265 kts | 152° |
| 2026-05-06 03:48 | 35.63053 | 140.47182 | 6189 ft | 267 kts | 153° |
| 2026-05-06 03:48 | 35.61448 | 140.48343 | 6989 ft | 268 kts | 153° |
| 2026-05-06 03:48 | 35.59833 | 140.49512 | 7694 ft | 272 kts | 152° |
| 2026-05-06 03:49 | 35.58197 | 140.50693 | 8439 ft | 274 kts | 152° |
| 2026-05-06 03:49 | 35.56547 | 140.51882 | 9201 ft | 276 kts | 151° |
| 2026-05-06 03:49 | 35.54871 | 140.53046 | 9929 ft | 275 kts | 157° |
| 2026-05-06 03:49 | 35.52981 | 140.53517 | 10377 ft | 286 kts | 183° |
| 2026-05-06 03:50 | 35.51018 | 140.52880 | 10523 ft | 310 kts | 209° |
| 2026-05-06 03:50 | 35.49367 | 140.51041 | 10694 ft | 335 kts | 234° |
| 2026-05-06 03:50 | 35.48386 | 140.48350 | 10920 ft | 359 kts | 256° |
| 2026-05-06 03:50 | 35.48278 | 140.45265 | 11594 ft | 370 kts | 276° |
| 2026-05-06 03:51 | 35.49042 | 140.42227 | 12487 ft | 377 kts | 295° |
| 2026-05-06 03:51 | 35.50605 | 140.39619 | 13529 ft | 383 kts | 312° |
| 2026-05-06 03:51 | 35.52781 | 140.37681 | 14453 ft | 392 kts | 330° |
| 2026-05-06 03:51 | 35.55345 | 140.36404 | 15185 ft | 400 kts | 336° |
| 2026-05-06 03:52 | 35.57993 | 140.35259 | 15959 ft | 406 kts | 336° |
| 2026-05-06 03:52 | 35.60683 | 140.34115 | 16873 ft | 409 kts | 335° |
| 2026-05-06 03:52 | 35.63375 | 140.32945 | 17791 ft | 412 kts | 334° |
| 2026-05-06 03:52 | 35.66048 | 140.31752 | 18567 ft | 416 kts | 333° |
| 2026-05-06 03:53 | 35.68776 | 140.30508 | 19264 ft | 419 kts | 332° |
| 2026-05-06 03:53 | 35.69707 | 140.30081 | 19519 ft | 420 kts | 332° |
| 2026-05-06 03:54 | 35.72041 | 140.29010 | 20156 ft | 422 kts | 332° |
| 2026-05-06 03:54 | 35.74678 | 140.27543 | 20754 ft | 410 kts | 319° |
| 2026-05-06 03:54 | 35.76715 | 140.25244 | 21348 ft | 397 kts | 301° |
| 2026-05-06 03:54 | 35.78207 | 140.22398 | 22211 ft | 386 kts | 290° |
| 2026-05-06 03:55 | 35.79060 | 140.19567 | 22978 ft | 378 kts | 281° |
| 2026-05-06 03:55 | 35.79727 | 140.16404 | 23758 ft | 376 kts | 279° |
| 2026-05-06 03:55 | 35.80353 | 140.13312 | 24310 ft | 379 kts | 279° |
| 2026-05-06 03:55 | 35.81002 | 140.10139 | 24741 ft | 384 kts | 279° |
| 2026-05-06 03:56 | 35.81679 | 140.06929 | 25195 ft | 389 kts | 279° |
| 2026-05-06 03:56 | 35.82376 | 140.03694 | 25672 ft | 393 kts | 279° |
| 2026-05-06 03:56 | 35.83084 | 140.00430 | 26155 ft | 396 kts | 279° |
| 2026-05-06 03:56 | 35.83802 | 139.97119 | 26639 ft | 400 kts | 278° |
| 2026-05-06 03:57 | 35.84521 | 139.93787 | 27126 ft | 404 kts | 278° |
| 2026-05-06 03:57 | 35.85240 | 139.90451 | 27602 ft | 409 kts | 278° |
| 2026-05-06 03:57 | 35.85973 | 139.87045 | 28061 ft | 413 kts | 278° |
| 2026-05-06 03:57 | 35.86714 | 139.83594 | 28493 ft | 416 kts | 278° |
| 2026-05-06 03:58 | 35.87451 | 139.80157 | 28888 ft | 419 kts | 277° |
| 2026-05-06 03:58 | 35.88200 | 139.76662 | 29249 ft | 423 kts | 277° |
| 2026-05-06 03:58 | 35.88951 | 139.73149 | 29584 ft | 426 kts | 277° |
| 2026-05-06 03:58 | 35.89711 | 139.69596 | 29903 ft | 430 kts | 277° |
| 2026-05-06 03:59 | 35.90473 | 139.66030 | 30215 ft | 432 kts | 277° |
| 2026-05-06 03:59 | 35.91242 | 139.62422 | 30495 ft | 435 kts | 277° |
| 2026-05-06 03:59 | 35.91942 | 139.58780 | 30797 ft | 432 kts | 274° |
| 2026-05-06 03:59 | 35.92408 | 139.55170 | 31125 ft | 429 kts | 272° |
| 2026-05-06 04:00 | 35.92841 | 139.51540 | 31561 ft | 427 kts | 272° |
| 2026-05-06 04:00 | 35.93276 | 139.47908 | 32043 ft | 423 kts | 272° |
| 2026-05-06 04:00 | 35.93707 | 139.44334 | 32493 ft | 420 kts | 272° |
| 2026-05-06 04:00 | 35.94136 | 139.40783 | 32895 ft | 418 kts | 272° |
| 2026-05-06 04:01 | 35.94565 | 139.37239 | 33291 ft | 416 kts | 272° |
| 2026-05-06 04:01 | 35.94985 | 139.33760 | 33684 ft | 414 kts | 272° |
| 2026-05-06 04:01 | 35.95409 | 139.30260 | 34072 ft | 411 kts | 272° |
| 2026-05-06 04:01 | 35.95831 | 139.26746 | 34170 ft | 415 kts | 272° |
| 2026-05-06 04:02 | 35.96675 | 139.19700 | 34235 ft | 412 kts | 272° |
| 2026-05-06 04:02 | 35.97515 | 139.12716 | 34233 ft | 410 kts | 272° |
| 2026-05-06 04:03 | 35.98339 | 139.05776 | 34244 ft | 411 kts | 271° |
| 2026-05-06 04:03 | 35.99169 | 138.98766 | 34241 ft | 412 kts | 271° |
| 2026-05-06 04:04 | 35.99997 | 138.91752 | 34225 ft | 411 kts | 271° |
| 2026-05-06 04:04 | 36.00480 | 138.84797 | 34227 ft | 406 kts | 265° |
| 2026-05-06 04:05 | 36.00537 | 138.77821 | 34232 ft | 405 kts | 265° |
| 2026-05-06 04:05 | 36.00628 | 138.70859 | 34228 ft | 405 kts | 265° |
| 2026-05-06 04:06 | 36.00715 | 138.63910 | 34224 ft | 404 kts | 265° |
| 2026-05-06 04:06 | 36.00794 | 138.56954 | 34214 ft | 405 kts | 265° |
| 2026-05-06 04:07 | 36.00850 | 138.50042 | 34202 ft | 405 kts | 265° |
| 2026-05-06 04:07 | 36.00888 | 138.43076 | 34206 ft | 405 kts | 265° |
| 2026-05-06 04:08 | 36.00925 | 138.36121 | 34183 ft | 405 kts | 265° |
| 2026-05-06 04:08 | 36.00961 | 138.29168 | 34198 ft | 404 kts | 265° |
| 2026-05-06 04:09 | 36.00993 | 138.22225 | 34180 ft | 404 kts | 265° |
| 2026-05-06 04:09 | 36.01032 | 138.15299 | 34175 ft | 403 kts | 265° |
| 2026-05-06 04:10 | 36.01084 | 138.08383 | 34148 ft | 401 kts | 265° |
| 2026-05-06 04:10 | 36.01135 | 138.01500 | 34170 ft | 400 kts | 265° |
| 2026-05-06 04:11 | 36.01174 | 137.94660 | 34142 ft | 401 kts | 265° |
| 2026-05-06 04:11 | 36.01211 | 137.87782 | 34173 ft | 400 kts | 265° |
| 2026-05-06 04:12 | 36.01244 | 137.80914 | 34142 ft | 399 kts | 264° |
| 2026-05-06 04:12 | 36.01275 | 137.74048 | 34160 ft | 398 kts | 265° |
| 2026-05-06 04:13 | 36.01301 | 137.67239 | 34170 ft | 399 kts | 264° |
| 2026-05-06 04:13 | 36.01305 | 137.60349 | 34187 ft | 402 kts | 264° |
| 2026-05-06 04:14 | 36.01302 | 137.53421 | 34187 ft | 404 kts | 264° |
| 2026-05-06 04:14 | 36.01296 | 137.46478 | 34183 ft | 403 kts | 264° |
| 2026-05-06 04:15 | 36.01294 | 137.39542 | 34208 ft | 403 kts | 264° |
| 2026-05-06 04:15 | 36.01289 | 137.32626 | 34217 ft | 401 kts | 264° |
| 2026-05-06 04:16 | 36.01279 | 137.25730 | 34196 ft | 399 kts | 264° |
| 2026-05-06 04:16 | 36.01264 | 137.18922 | 34171 ft | 399 kts | 264° |
| 2026-05-06 04:17 | 36.01246 | 137.12096 | 34189 ft | 398 kts | 264° |
| 2026-05-06 04:17 | 36.01220 | 137.05230 | 34187 ft | 401 kts | 264° |
| 2026-05-06 04:18 | 36.01193 | 136.98329 | 34185 ft | 402 kts | 264° |
| 2026-05-06 04:18 | 36.01163 | 136.91422 | 34177 ft | 402 kts | 264° |
| 2026-05-06 04:19 | 36.01129 | 136.84546 | 34164 ft | 401 kts | 264° |
| 2026-05-06 04:19 | 36.01097 | 136.77652 | 34171 ft | 401 kts | 264° |
| 2026-05-06 04:20 | 36.01049 | 136.70748 | 34182 ft | 401 kts | 263° |
| 2026-05-06 04:20 | 36.00999 | 136.63892 | 34154 ft | 402 kts | 263° |
| 2026-05-06 04:21 | 36.00953 | 136.57016 | 34112 ft | 396 kts | 262° |
| 2026-05-06 04:21 | 36.00902 | 136.50264 | 34149 ft | 392 kts | 262° |
| 2026-05-06 04:22 | 36.00844 | 136.43530 | 34146 ft | 391 kts | 262° |
| 2026-05-06 04:23 | 36.00749 | 136.33467 | 34136 ft | 393 kts | 262° |
| 2026-05-06 04:23 | 36.00698 | 136.27848 | 34142 ft | 393 kts | 262° |
| 2026-05-06 04:24 | 36.00620 | 136.19966 | 34138 ft | 394 kts | 261° |
| 2026-05-06 04:24 | 36.00548 | 136.13190 | 34134 ft | 395 kts | 261° |
| 2026-05-06 04:25 | 36.00485 | 136.07561 | 34136 ft | 394 kts | 261° |
| 2026-05-06 04:25 | 36.00409 | 136.00806 | 34135 ft | 392 kts | 262° |
| 2026-05-06 04:26 | 36.00326 | 135.94054 | 34141 ft | 393 kts | 261° |
| 2026-05-06 04:26 | 36.00239 | 135.87283 | 34136 ft | 394 kts | 261° |
| 2026-05-06 04:27 | 36.00149 | 135.80500 | 34134 ft | 395 kts | 261° |
| 2026-05-06 04:27 | 36.00055 | 135.73749 | 34129 ft | 395 kts | 261° |
| 2026-05-06 04:28 | 35.99957 | 135.66935 | 34135 ft | 396 kts | 261° |
| 2026-05-06 04:28 | 35.99856 | 135.60169 | 34132 ft | 396 kts | 261° |
| 2026-05-06 04:29 | 35.99750 | 135.53367 | 34129 ft | 396 kts | 261° |
| 2026-05-06 04:29 | 35.99641 | 135.46567 | 34126 ft | 396 kts | 261° |
| 2026-05-06 04:30 | 35.99528 | 135.39772 | 34124 ft | 395 kts | 261° |
| 2026-05-06 04:30 | 35.99411 | 135.32979 | 34122 ft | 395 kts | 261° |
| 2026-05-06 04:31 | 35.99291 | 135.26247 | 34121 ft | 394 kts | 261° |
| 2026-05-06 04:31 | 35.99166 | 135.19475 | 34119 ft | 394 kts | 261° |
| 2026-05-06 04:32 | 35.99038 | 135.12712 | 34119 ft | 393 kts | 261° |
| 2026-05-06 04:32 | 35.98907 | 135.05950 | 34120 ft | 393 kts | 261° |
| 2026-05-06 04:33 | 35.98772 | 134.99239 | 34123 ft | 392 kts | 260° |
| 2026-05-06 04:33 | 35.98634 | 134.92506 | 34118 ft | 392 kts | 260° |
| 2026-05-06 04:34 | 35.98492 | 134.85785 | 34117 ft | 391 kts | 260° |
| 2026-05-06 04:34 | 35.98346 | 134.79069 | 34116 ft | 390 kts | 260° |
| 2026-05-06 04:35 | 35.98198 | 134.72370 | 34115 ft | 390 kts | 260° |
| 2026-05-06 04:35 | 35.98047 | 134.65678 | 34109 ft | 390 kts | 260° |
| 2026-05-06 04:36 | 35.97893 | 134.59027 | 34113 ft | 390 kts | 260° |
| 2026-05-06 04:36 | 35.97735 | 134.52326 | 34115 ft | 390 kts | 260° |
| 2026-05-06 04:37 | 35.97572 | 134.45612 | 34109 ft | 391 kts | 260° |
| 2026-05-06 04:37 | 35.97406 | 134.38888 | 34114 ft | 392 kts | 260° |
| 2026-05-06 04:38 | 35.97236 | 134.32164 | 34115 ft | 392 kts | 260° |
| 2026-05-06 04:38 | 35.97062 | 134.25423 | 34110 ft | 393 kts | 261° |
| 2026-05-06 04:39 | 35.96885 | 134.18693 | 34108 ft | 395 kts | 261° |
| 2026-05-06 04:39 | 35.96702 | 134.11903 | 34108 ft | 396 kts | 261° |
| 2026-05-06 04:40 | 35.96514 | 134.05070 | 34116 ft | 398 kts | 261° |
| 2026-05-06 04:40 | 35.96324 | 133.98251 | 34111 ft | 400 kts | 261° |
| 2026-05-06 04:41 | 35.96125 | 133.91366 | 34104 ft | 402 kts | 261° |
| 2026-05-06 04:41 | 35.95915 | 133.84429 | 34103 ft | 404 kts | 261° |
| 2026-05-06 04:42 | 35.95701 | 133.77486 | 34103 ft | 406 kts | 261° |
| 2026-05-06 04:42 | 35.95483 | 133.70510 | 34099 ft | 408 kts | 262° |
| 2026-05-06 04:43 | 35.95261 | 133.63509 | 34102 ft | 409 kts | 262° |
| 2026-05-06 04:43 | 35.95035 | 133.56517 | 34113 ft | 410 kts | 262° |
| 2026-05-06 04:44 | 35.94800 | 133.49449 | 34259 ft | 415 kts | 264° |
| 2026-05-06 04:44 | 35.94555 | 133.42218 | 34168 ft | 427 kts | 264° |
| 2026-05-06 04:45 | 35.94308 | 133.34898 | 34117 ft | 426 kts | 264° |
| 2026-05-06 04:45 | 35.94056 | 133.27579 | 34109 ft | 425 kts | 264° |
| 2026-05-06 04:46 | 35.93800 | 133.20334 | 34109 ft | 425 kts | 264° |
| 2026-05-06 04:46 | 35.93538 | 133.13045 | 34109 ft | 425 kts | 264° |
| 2026-05-06 04:47 | 35.93271 | 133.05743 | 34107 ft | 426 kts | 264° |
| 2026-05-06 04:47 | 35.92998 | 132.98418 | 34113 ft | 427 kts | 264° |
| 2026-05-06 04:48 | 35.92721 | 132.91071 | 34110 ft | 429 kts | 264° |
| 2026-05-06 04:48 | 35.92440 | 132.83753 | 34114 ft | 430 kts | 264° |
| 2026-05-06 04:49 | 35.92152 | 132.76370 | 34111 ft | 431 kts | 264° |
| 2026-05-06 04:49 | 35.91859 | 132.68975 | 34113 ft | 432 kts | 264° |
| 2026-05-06 04:50 | 35.91561 | 132.61567 | 34110 ft | 432 kts | 265° |
| 2026-05-06 04:50 | 35.91258 | 132.54165 | 34112 ft | 433 kts | 265° |
| 2026-05-06 04:51 | 35.90950 | 132.46735 | 34097 ft | 433 kts | 265° |
| 2026-05-06 04:51 | 35.90639 | 132.39340 | 34114 ft | 434 kts | 265° |
| 2026-05-06 04:52 | 35.90321 | 132.31894 | 34118 ft | 435 kts | 265° |
| 2026-05-06 04:52 | 35.89998 | 132.24434 | 34105 ft | 435 kts | 265° |
| 2026-05-06 04:53 | 35.89670 | 132.16967 | 34103 ft | 436 kts | 265° |
| 2026-05-06 04:53 | 35.89336 | 132.09491 | 34104 ft | 436 kts | 265° |
| 2026-05-06 04:54 | 35.88999 | 132.02040 | 34099 ft | 436 kts | 265° |
| 2026-05-06 04:54 | 35.88657 | 131.94570 | 34107 ft | 436 kts | 265° |
| 2026-05-06 04:55 | 35.88312 | 131.87141 | 34100 ft | 436 kts | 265° |
| 2026-05-06 04:55 | 35.87961 | 131.79674 | 34103 ft | 437 kts | 265° |
| 2026-05-06 04:56 | 35.87604 | 131.72194 | 34092 ft | 437 kts | 265° |
| 2026-05-06 04:56 | 35.87242 | 131.64702 | 34104 ft | 437 kts | 265° |
| 2026-05-06 04:57 | 35.86875 | 131.57211 | 34094 ft | 438 kts | 265° |
| 2026-05-06 04:57 | 35.86505 | 131.49726 | 34101 ft | 438 kts | 265° |
| 2026-05-06 04:58 | 35.86130 | 131.42257 | 34090 ft | 438 kts | 265° |
| 2026-05-06 04:58 | 35.85749 | 131.34758 | 34102 ft | 438 kts | 264° |
| 2026-05-06 04:59 | 35.85362 | 131.27240 | 34094 ft | 439 kts | 265° |
| 2026-05-06 04:59 | 35.84971 | 131.19730 | 34092 ft | 439 kts | 264° |
| 2026-05-06 05:00 | 35.84577 | 131.12257 | 34088 ft | 439 kts | 264° |
| 2026-05-06 05:00 | 35.84176 | 131.04726 | 34092 ft | 439 kts | 264° |
| 2026-05-06 05:01 | 35.83770 | 130.97201 | 34087 ft | 439 kts | 264° |
| 2026-05-06 05:01 | 35.83362 | 130.89722 | 34091 ft | 439 kts | 264° |
| 2026-05-06 05:02 | 35.82948 | 130.82201 | 34086 ft | 440 kts | 264° |
| 2026-05-06 05:02 | 35.82583 | 130.74649 | 34089 ft | 440 kts | 268° |
| 2026-05-06 05:03 | 35.83009 | 130.67144 | 34083 ft | 443 kts | 276° |
| 2026-05-06 05:03 | 35.83991 | 130.59646 | 34088 ft | 443 kts | 276° |
| 2026-05-06 05:04 | 35.84971 | 130.52129 | 34085 ft | 444 kts | 276° |
| 2026-05-06 05:04 | 35.85927 | 130.44606 | 34077 ft | 443 kts | 276° |
| 2026-05-06 05:05 | 35.86864 | 130.37142 | 34078 ft | 443 kts | 276° |
| 2026-05-06 05:05 | 35.87805 | 130.29613 | 34074 ft | 444 kts | 276° |
| 2026-05-06 05:06 | 35.88740 | 130.22086 | 34076 ft | 444 kts | 276° |
| 2026-05-06 05:06 | 35.89673 | 130.14533 | 34063 ft | 445 kts | 276° |
| 2026-05-06 05:07 | 35.90597 | 130.07016 | 34070 ft | 445 kts | 276° |
| 2026-05-06 05:07 | 35.91521 | 129.99454 | 34058 ft | 446 kts | 276° |
| 2026-05-06 05:08 | 35.92442 | 129.91882 | 34064 ft | 446 kts | 276° |
| 2026-05-06 05:08 | 35.93361 | 129.84292 | 34051 ft | 447 kts | 276° |
| 2026-05-06 05:09 | 35.94118 | 129.77972 | 34058 ft | 447 kts | 276° |
| 2026-05-06 05:09 | 35.95018 | 129.70369 | 34047 ft | 448 kts | 276° |
| 2026-05-06 05:10 | 35.95917 | 129.62747 | 34048 ft | 448 kts | 276° |
| 2026-05-06 05:10 | 35.96811 | 129.55132 | 34035 ft | 448 kts | 276° |
| 2026-05-06 05:11 | 35.98448 | 129.47725 | 34043 ft | 452 kts | 289° |
| 2026-05-06 05:11 | 36.01414 | 129.40821 | 34037 ft | 458 kts | 301° |
| 2026-05-06 05:12 | 36.05120 | 129.34450 | 34033 ft | 459 kts | 302° |
| 2026-05-06 05:12 | 36.08892 | 129.28047 | 34024 ft | 459 kts | 302° |
| 2026-05-06 05:13 | 36.12601 | 129.21649 | 34037 ft | 458 kts | 302° |
| 2026-05-06 05:13 | 36.16291 | 129.15217 | 34032 ft | 458 kts | 302° |
| 2026-05-06 05:14 | 36.19978 | 129.08773 | 34035 ft | 458 kts | 302° |
| 2026-05-06 05:14 | 36.23655 | 129.02337 | 34023 ft | 458 kts | 302° |
| 2026-05-06 05:15 | 36.27306 | 128.95940 | 34033 ft | 457 kts | 302° |
| 2026-05-06 05:15 | 36.30977 | 128.89492 | 34019 ft | 457 kts | 302° |
| 2026-05-06 05:16 | 36.34650 | 128.83031 | 34026 ft | 457 kts | 302° |
| 2026-05-06 05:16 | 36.38305 | 128.76607 | 34023 ft | 458 kts | 302° |
| 2026-05-06 05:17 | 36.41984 | 128.70128 | 34028 ft | 458 kts | 302° |
| 2026-05-06 05:17 | 36.45641 | 128.63666 | 33758 ft | 449 kts | 307° |
| 2026-05-06 05:17 | 36.47391 | 128.60570 | 33870 ft | 439 kts | 307° |
| 2026-05-06 05:18 | 36.49141 | 128.57475 | 33939 ft | 436 kts | 307° |
| 2026-05-06 05:18 | 36.52646 | 128.51273 | 34011 ft | 439 kts | 307° |
| 2026-05-06 05:19 | 36.56174 | 128.45012 | 34022 ft | 443 kts | 307° |
| 2026-05-06 05:19 | 36.59715 | 128.38713 | 34020 ft | 444 kts | 307° |
| 2026-05-06 05:20 | 36.63258 | 128.32401 | 34012 ft | 444 kts | 307° |
| 2026-05-06 05:20 | 36.66825 | 128.26147 | 34019 ft | 442 kts | 307° |
| 2026-05-06 05:21 | 36.70374 | 128.19956 | 34010 ft | 441 kts | 307° |
| 2026-05-06 05:21 | 36.73923 | 128.13735 | 34023 ft | 440 kts | 307° |
| 2026-05-06 05:22 | 36.77463 | 128.07517 | 34029 ft | 437 kts | 307° |
| 2026-05-06 05:22 | 36.81019 | 128.01265 | 33009 ft | 451 kts | 307° |
| 2026-05-06 05:22 | 36.82832 | 127.98071 | 32167 ft | 451 kts | 306° |
| 2026-05-06 05:23 | 36.84648 | 127.94866 | 31255 ft | 452 kts | 306° |
| 2026-05-06 05:23 | 36.86457 | 127.91655 | 30522 ft | 451 kts | 306° |
| 2026-05-06 05:23 | 36.90005 | 127.85314 | 29067 ft | 445 kts | 305° |
| 2026-05-06 05:24 | 36.91773 | 127.82155 | 28406 ft | 440 kts | 305° |
| 2026-05-06 05:24 | 36.93522 | 127.79030 | 27754 ft | 435 kts | 305° |
| 2026-05-06 05:24 | 36.95265 | 127.75936 | 27131 ft | 432 kts | 305° |
| 2026-05-06 05:24 | 36.96972 | 127.72918 | 26523 ft | 428 kts | 304° |
| 2026-05-06 05:25 | 36.98693 | 127.69874 | 25913 ft | 425 kts | 304° |
| 2026-05-06 05:25 | 37.00396 | 127.66857 | 25316 ft | 422 kts | 304° |
| 2026-05-06 05:25 | 37.02084 | 127.63858 | 24722 ft | 420 kts | 304° |
| 2026-05-06 05:25 | 37.03756 | 127.60868 | 24118 ft | 418 kts | 303° |
| 2026-05-06 05:26 | 37.05415 | 127.57882 | 23500 ft | 417 kts | 303° |
| 2026-05-06 05:26 | 37.07066 | 127.54903 | 22831 ft | 415 kts | 303° |
| 2026-05-06 05:26 | 37.08686 | 127.51983 | 22211 ft | 412 kts | 303° |
| 2026-05-06 05:26 | 37.10316 | 127.49048 | 21633 ft | 409 kts | 303° |
| 2026-05-06 05:27 | 37.11850 | 127.46065 | 21049 ft | 405 kts | 298° |
| 2026-05-06 05:27 | 37.13121 | 127.42924 | 20496 ft | 402 kts | 293° |
| 2026-05-06 05:27 | 37.14163 | 127.39673 | 19930 ft | 399 kts | 288° |
| 2026-05-06 05:27 | 37.15020 | 127.36384 | 19382 ft | 397 kts | 287° |
| 2026-05-06 05:28 | 37.15841 | 127.33134 | 18846 ft | 395 kts | 286° |
| 2026-05-06 05:28 | 37.16666 | 127.29848 | 18274 ft | 394 kts | 287° |
| 2026-05-06 05:28 | 37.17493 | 127.26567 | 17670 ft | 393 kts | 287° |
| 2026-05-06 05:28 | 37.18316 | 127.23312 | 17072 ft | 391 kts | 287° |
| 2026-05-06 05:29 | 37.19137 | 127.20064 | 16540 ft | 389 kts | 287° |
| 2026-05-06 05:29 | 37.19953 | 127.16843 | 15982 ft | 387 kts | 286° |
| 2026-05-06 05:29 | 37.20771 | 127.13638 | 15454 ft | 384 kts | 287° |
| 2026-05-06 05:29 | 37.21582 | 127.10455 | 14919 ft | 382 kts | 286° |
| 2026-05-06 05:30 | 37.22379 | 127.07312 | 14405 ft | 381 kts | 286° |
| 2026-05-06 05:30 | 37.23185 | 127.04126 | 13872 ft | 380 kts | 286° |
| 2026-05-06 05:30 | 37.23983 | 127.00974 | 13279 ft | 378 kts | 286° |
| 2026-05-06 05:30 | 37.24767 | 126.97870 | 12743 ft | 376 kts | 286° |
| 2026-05-06 05:31 | 37.25554 | 126.94755 | 12217 ft | 373 kts | 286° |
| 2026-05-06 05:31 | 37.26336 | 126.91658 | 11706 ft | 370 kts | 286° |
| 2026-05-06 05:31 | 37.27109 | 126.88581 | 11206 ft | 368 kts | 285° |
| 2026-05-06 05:31 | 37.27866 | 126.85567 | 11041 ft | 356 kts | 286° |
| 2026-05-06 05:32 | 37.28607 | 126.82637 | 10861 ft | 345 kts | 286° |
| 2026-05-06 05:32 | 37.29286 | 126.79944 | 10729 ft | 335 kts | 285° |
| 2026-05-06 05:32 | 37.29977 | 126.77196 | 10589 ft | 325 kts | 285° |
| 2026-05-06 05:32 | 37.30645 | 126.74528 | 10409 ft | 317 kts | 285° |
| 2026-05-06 05:33 | 37.31298 | 126.71918 | 10264 ft | 309 kts | 285° |
| 2026-05-06 05:33 | 37.31932 | 126.69379 | 10148 ft | 301 kts | 285° |
| 2026-05-06 05:33 | 37.32550 | 126.66897 | 10003 ft | 294 kts | 285° |
| 2026-05-06 05:33 | 37.33155 | 126.64467 | 9783 ft | 288 kts | 285° |
| 2026-05-06 05:34 | 37.33749 | 126.62082 | 9433 ft | 286 kts | 285° |
| 2026-05-06 05:34 | 37.34340 | 126.59708 | 9075 ft | 285 kts | 285° |
| 2026-05-06 05:34 | 37.34926 | 126.57351 | 8754 ft | 283 kts | 285° |
| 2026-05-06 05:34 | 37.35507 | 126.55014 | 8449 ft | 272 kts | 285° |
| 2026-05-06 05:35 | 37.36060 | 126.52791 | 8012 ft | 264 kts | 285° |
| 2026-05-06 05:35 | 37.36604 | 126.50597 | 7687 ft | 263 kts | 285° |
| 2026-05-06 05:35 | 37.37146 | 126.48406 | 7362 ft | 262 kts | 285° |
| 2026-05-06 05:35 | 37.37681 | 126.46244 | 7052 ft | 262 kts | 285° |
| 2026-05-06 05:36 | 37.38222 | 126.44060 | 6731 ft | 261 kts | 285° |
| 2026-05-06 05:36 | 37.38762 | 126.41870 | 6419 ft | 261 kts | 285° |
| 2026-05-06 05:36 | 37.39301 | 126.39690 | 6082 ft | 262 kts | 285° |
| 2026-05-06 05:36 | 37.39843 | 126.37502 | 5751 ft | 261 kts | 285° |
| 2026-05-06 05:37 | 37.40409 | 126.35345 | 5417 ft | 257 kts | 292° |
| 2026-05-06 05:37 | 37.41498 | 126.33559 | 5102 ft | 260 kts | 317° |
| 2026-05-06 05:37 | 37.42962 | 126.32249 | 4833 ft | 257 kts | 321° |
| 2026-05-06 05:37 | 37.44406 | 126.30978 | 4508 ft | 257 kts | 321° |
| 2026-05-06 05:38 | 37.45861 | 126.29686 | 4200 ft | 256 kts | 321° |
| 2026-05-06 05:38 | 37.47315 | 126.28395 | 3886 ft | 255 kts | 320° |
| 2026-05-06 05:38 | 37.48764 | 126.27104 | 3587 ft | 255 kts | 320° |
| 2026-05-06 05:38 | 37.50136 | 126.25880 | 3302 ft | 255 kts | 320° |
| 2026-05-06 05:39 | 37.51584 | 126.24587 | 2983 ft | 255 kts | 320° |
| 2026-05-06 05:39 | 37.53031 | 126.23295 | 2684 ft | 254 kts | 319° |
| 2026-05-06 05:39 | 37.54482 | 126.22024 | 2371 ft | 253 kts | 325° |
| 2026-05-06 05:39 | 37.56193 | 126.21405 | 2041 ft | 263 kts | 358° |
| 2026-05-06 05:40 | 37.57901 | 126.22053 | 1953 ft | 255 kts | 33° |
| 2026-05-06 05:40 | 37.59107 | 126.23581 | 1896 ft | 237 kts | 56° |
| 2026-05-06 05:40 | 37.60021 | 126.25199 | 1835 ft | 222 kts | 59° |
| 2026-05-06 05:40 | 37.60558 | 126.27003 | 1919 ft | 215 kts | 94° |
| 2026-05-06 05:41 | 37.60196 | 126.28723 | 1982 ft | 199 kts | 133° |
| 2026-05-06 05:41 | 37.59250 | 126.29939 | 2016 ft | 194 kts | 145° |
| 2026-05-06 05:41 | 37.58245 | 126.31079 | 2005 ft | 194 kts | 147° |
| 2026-05-06 05:41 | 37.57198 | 126.32109 | 1990 ft | 191 kts | 151° |
| 2026-05-06 05:42 | 37.56152 | 126.33061 | 1994 ft | 177 kts | 152° |
| 2026-05-06 05:42 | 37.55190 | 126.33923 | 1996 ft | 162 kts | 153° |
| 2026-05-06 05:42 | 37.54282 | 126.34730 | 1884 ft | 158 kts | 153° |
| 2026-05-06 05:42 | 37.53405 | 126.35514 | 1693 ft | 153 kts | 152° |
| 2026-05-06 05:43 | 37.52521 | 126.36300 | 1473 ft | 157 kts | 152° |
| 2026-05-06 05:43 | 37.51639 | 126.37091 | 1238 ft | 154 kts | 152° |
| 2026-05-06 05:43 | 37.50767 | 126.37869 | 1044 ft | 153 kts | 150° |
| 2026-05-06 05:43 | 37.49903 | 126.38639 | 808 ft | 157 kts | 149° |
| 2026-05-06 05:44 | 37.49020 | 126.39439 | 600 ft | 156 kts | 149° |
| 2026-05-06 05:44 | 37.48144 | 126.40216 | 381 ft | 152 kts | 148° |
| 2026-05-06 05:44 | 37.47278 | 126.40993 | 205 ft | 154 kts | 149° |
| 2026-05-06 05:44 | 37.46400 | 126.41773 | 40 ft | 150 kts | 150° |
| 2026-05-06 05:45 | 37.45658 | 126.42430 | 38 ft | 104 kts | 144° |
| 2026-05-06 05:45 | 37.45215 | 126.42824 | 38 ft | 51 kts | 144° |
| 2026-05-06 05:45 | 37.44962 | 126.43068 | 38 ft | 44 kts | 133° |
| 2026-05-06 05:45 | 37.44851 | 126.43305 | 38 ft | 30 kts | 114° |
| 2026-05-06 05:46 | 37.44791 | 126.43450 | 38 ft | 12 kts | 124° |
| 2026-05-06 05:46 | 37.44736 | 126.43524 | 38 ft | 12 kts | 118° |
| 2026-05-06 05:46 | 37.44760 | 126.43620 | 38 ft | 12 kts | 56° |
| 2026-05-06 05:46 | 37.44809 | 126.43707 | 37 ft | 12 kts | 54° |
| 2026-05-06 05:47 | 37.44858 | 126.43794 | 37 ft | 12 kts | 54° |
| 2026-05-06 05:47 | 37.44904 | 126.43882 | 37 ft | 12 kts | 69° |
| 2026-05-06 05:47 | 37.44916 | 126.43988 | 37 ft | 12 kts | 70° |
| 2026-05-06 05:47 | 37.44964 | 126.44078 | 37 ft | 12 kts | 55° |
| 2026-05-06 05:48 | 37.45013 | 126.44166 | 37 ft | 12 kts | 54° |
| 2026-05-06 05:48 | 37.45063 | 126.44254 | 37 ft | 12 kts | 54° |
| 2026-05-06 05:48 | 37.45113 | 126.44342 | 37 ft | 12 kts | 55° |
| 2026-05-06 05:48 | 37.45163 | 126.44431 | 37 ft | 12 kts | 54° |
| 2026-05-06 05:49 | 37.45213 | 126.44519 | 37 ft | 12 kts | 54° |
| 2026-05-06 05:49 | 37.45228 | 126.44621 | 37 ft | 13 kts | 103° |
| 2026-05-06 05:49 | 37.45187 | 126.44717 | 37 ft | 13 kts | 126° |
| 2026-05-06 05:49 | 37.45142 | 126.44759 | 37 ft | 7 kts | 187° |
| 2026-05-06 05:50 | 37.45102 | 126.44721 | 37 ft | 7 kts | 217° |
| 2026-05-06 05:50 | 37.45085 | 126.44705 | 37 ft | 3 kts | 216° |
| 2026-05-06 05:50 | 37.45077 | 126.44698 | 37 ft | 1 kts | 216° |
| 2026-05-06 05:50 | 37.45075 | 126.44696 | 37 ft | 0 kts | 216° |